Time;durP1;ratioP1;P1;durP2;ratioP2;P2;SDS_P1;SDS_P2;PMS_P1;PMS_P2;Temp;Humidity;BMP_temperature;BMP_pressure;BME280_temperature;BME280_humidity;BME280_pressure;Samples;Min_cycle;Max_cycle;Signal;HPM_P1;HPM_P2
2022/01/07 00:00:07;;;;;;;16.03;9.90;;;2.60;97.80;;;;;;5050253;28;20608;-47
2022/01/07 00:02:35;;;;;;;18.73;10.40;;;2.60;97.80;;;;;;5047084;28;20478;-47
2022/01/07 00:05:01;;;;;;;17.03;9.37;;;2.70;97.70;;;;;;5028051;28;20479;-47
2022/01/07 00:07:28;;;;;;;23.27;8.67;;;2.70;97.70;;;;;;5063077;28;20471;-47
2022/01/07 00:09:54;;;;;;;19.10;11.13;;;2.70;97.80;;;;;;5053802;28;20471;-47
2022/01/07 00:12:22;;;;;;;26.03;11.90;;;2.70;97.80;;;;;;5047619;28;20490;-47
2022/01/07 00:14:49;;;;;;;19.00;11.17;;;2.70;97.70;;;;;;5044775;28;20479;-49
2022/01/07 00:17:17;;;;;;;23.70;13.90;;;2.70;97.80;;;;;;5035708;28;21085;-47
2022/01/07 00:19:45;;;;;;;22.93;11.80;;;2.60;97.80;;;;;;5049526;28;20490;-47
2022/01/07 00:22:12;;;;;;;25.13;12.20;;;2.60;98.20;;;;;;5057873;28;20489;-47
2022/01/07 00:24:39;;;;;;;34.00;13.50;;;2.50;98.10;;;;;;5046398;28;20480;-47
2022/01/07 00:27:06;;;;;;;24.73;14.00;;;2.40;98.40;;;;;;5044603;28;20486;-47
2022/01/07 00:29:32;;;;;;;21.53;13.13;;;2.40;98.50;;;;;;5048904;27;20488;-47
2022/01/07 00:31:59;;;;;;;22.20;11.70;;;2.40;98.50;;;;;;5054172;27;20533;-47
2022/01/07 00:34:26;;;;;;;27.77;13.67;;;2.50;98.60;;;;;;5040624;28;20891;-47
2022/01/07 00:36:54;;;;;;;31.30;13.77;;;2.40;98.60;;;;;;5046462;28;27705;-47
2022/01/07 00:39:21;;;;;;;32.33;13.40;;;2.50;98.80;;;;;;5045525;28;20523;-47
2022/01/07 00:41:47;;;;;;;34.60;17.63;;;2.50;98.60;;;;;;5049163;28;20481;-47
2022/01/07 00:44:14;;;;;;;32.20;16.57;;;2.50;98.50;;;;;;5044449;28;21308;-47
2022/01/07 00:46:41;;;;;;;33.20;14.73;;;2.40;98.70;;;;;;5048017;28;20475;-47
2022/01/07 00:49:07;;;;;;;43.00;17.93;;;2.20;99.10;;;;;;5038903;28;20475;-47
2022/01/07 00:51:34;;;;;;;35.67;16.63;;;2.10;99.30;;;;;;5042278;28;20863;-47
2022/01/07 00:54:02;;;;;;;35.17;16.43;;;2.10;99.50;;;;;;5061313;28;20510;-47
2022/01/07 00:56:29;;;;;;;34.27;17.03;;;2.00;99.70;;;;;;5056317;28;20537;-47
2022/01/07 00:58:55;;;;;;;38.10;17.07;;;2.00;99.90;;;;;;5034215;28;20925;-47
2022/01/07 01:01:22;;;;;;;28.63;13.63;;;2.00;99.70;;;;;;5062812;28;20537;-47
2022/01/07 01:03:49;;;;;;;28.97;13.27;;;2.00;99.60;;;;;;5060883;28;20489;-47
2022/01/07 01:06:16;;;;;;;27.37;15.13;;;2.00;99.60;;;;;;5058021;28;20556;-47
2022/01/07 01:08:42;;;;;;;37.60;14.60;;;2.10;99.50;;;;;;5056110;28;20488;-47
2022/01/07 01:11:10;;;;;;;33.43;16.73;;;2.00;99.30;;;;;;5056075;28;21067;-47
2022/01/07 01:13:37;;;;;;;38.60;17.07;;;2.10;99.70;;;;;;5058757;28;20471;-47
2022/01/07 01:16:04;;;;;;;30.40;15.10;;;2.10;99.60;;;;;;5054848;28;20479;-47
2022/01/07 01:18:31;;;;;;;30.40;14.00;;;2.10;99.70;;;;;;5059227;28;20995;-47
2022/01/07 01:20:58;;;;;;;28.27;14.20;;;2.20;99.50;;;;;;5059045;28;20495;-47
2022/01/07 01:23:25;;;;;;;28.60;15.10;;;2.20;99.10;;;;;;5060037;28;21053;-47
2022/01/07 01:25:52;;;;;;;32.40;17.07;;;2.20;99.10;;;;;;5060832;28;20478;-47
2022/01/07 01:28:20;;;;;;;35.73;17.33;;;2.10;99.30;;;;;;5059888;28;20478;-47
2022/01/07 01:30:47;;;;;;;29.70;14.50;;;2.10;99.40;;;;;;5041874;28;20480;-47
2022/01/07 01:33:14;;;;;;;36.67;16.17;;;2.10;99.40;;;;;;5062727;28;20480;-46
2022/01/07 01:35:41;;;;;;;36.80;17.80;;;2.10;99.30;;;;;;5063963;28;20486;-47
2022/01/07 01:38:08;;;;;;;30.73;14.60;;;2.10;99.40;;;;;;5059555;28;20905;-47
2022/01/07 01:40:35;;;;;;;36.63;14.53;;;2.00;99.10;;;;;;5060573;28;20484;-47
2022/01/07 01:43:02;;;;;;;26.57;14.13;;;2.10;99.40;;;;;;5060748;28;21060;-48
2022/01/07 01:45:30;;;;;;;25.97;14.43;;;2.00;99.20;;;;;;5058532;28;20465;-47
2022/01/07 01:47:57;;;;;;;26.77;12.67;;;2.00;99.20;;;;;;5039678;28;20475;-47
2022/01/07 01:50:24;;;;;;;27.20;14.80;;;2.10;99.50;;;;;;5061207;28;20481;-47
2022/01/07 01:52:54;;;;;;;22.67;12.97;;;2.10;99.10;;;;;;5075459;28;20477;-47
2022/01/07 01:55:24;;;;;;;25.37;11.87;;;2.20;99.10;;;;;;5076306;28;20475;-47
2022/01/07 01:57:52;;;;;;;24.70;14.10;;;2.20;99.00;;;;;;5076345;28;20574;-47
2022/01/07 02:00:19;;;;;;;29.40;12.63;;;2.20;99.00;;;;;;5078567;28;20494;-47
2022/01/07 02:02:47;;;;;;;30.93;12.87;;;2.20;98.90;;;;;;5074711;28;21187;-51
2022/01/07 02:05:14;;;;;;;27.10;14.60;;;2.00;98.80;;;;;;5079384;28;20535;-47
2022/01/07 02:07:41;;;;;;;32.90;14.23;;;2.00;99.00;;;;;;5073713;28;21053;-47
2022/01/07 02:10:11;;;;;;;32.47;15.20;;;2.00;99.20;;;;;;5054574;28;20483;-47
2022/01/07 02:12:38;;;;;;;30.10;13.63;;;2.00;99.00;;;;;;5049384;28;20474;-47
2022/01/07 02:15:06;;;;;;;25.93;13.63;;;2.00;99.20;;;;;;5078795;28;20492;-47
2022/01/07 02:17:33;;;;;;;24.07;12.10;;;2.00;99.20;;;;;;5045539;28;20887;-47
2022/01/07 02:20:01;;;;;;;24.00;11.67;;;2.10;99.00;;;;;;5064528;27;20475;-47
2022/01/07 02:22:28;;;;;;;28.77;13.63;;;2.10;99.20;;;;;;5076907;27;20506;-46
2022/01/07 02:24:55;;;;;;;24.27;12.67;;;2.20;99.10;;;;;;5056621;28;20483;-47
2022/01/07 02:27:24;;;;;;;24.03;11.53;;;2.20;99.10;;;;;;5060461;28;20931;-47
2022/01/07 02:29:51;;;;;;;27.07;12.73;;;2.30;99.00;;;;;;5061740;28;21058;-47
2022/01/07 02:32:19;;;;;;;25.97;12.83;;;2.30;98.90;;;;;;5059247;28;20483;-47
2022/01/07 02:34:47;;;;;;;33.40;14.70;;;2.20;98.60;;;;;;5057792;28;20571;-48
2022/01/07 02:37:15;;;;;;;26.97;14.50;;;2.10;98.70;;;;;;5060393;28;20490;-47
2022/01/07 02:39:44;;;;;;;34.43;13.87;;;2.00;98.70;;;;;;5048964;28;20495;-47
2022/01/07 02:42:10;;;;;;;27.73;13.50;;;1.90;99.00;;;;;;5056456;28;20480;-47
2022/01/07 02:44:37;;;;;;;25.80;13.17;;;1.80;99.30;;;;;;5053894;28;20478;-47
2022/01/07 02:47:04;;;;;;;31.13;11.70;;;1.80;99.50;;;;;;5057073;28;21021;-47
2022/01/07 02:49:31;;;;;;;29.93;13.40;;;1.70;99.70;;;;;;5057252;28;21134;-47
2022/01/07 02:51:58;;;;;;;25.67;12.97;;;1.70;99.80;;;;;;5058846;28;20926;-47
2022/01/07 02:54:26;;;;;;;25.60;12.47;;;1.80;99.80;;;;;;5058020;28;20488;-48
2022/01/07 02:56:53;;;;;;;23.93;13.37;;;1.80;99.70;;;;;;5055729;28;20539;-47
2022/01/07 02:59:20;;;;;;;29.70;15.50;;;1.70;99.70;;;;;;5059209;28;20552;-47
2022/01/07 03:01:46;;;;;;;22.60;11.67;;;1.70;99.80;;;;;;5055077;28;20484;-47
2022/01/07 03:04:13;;;;;;;24.33;12.20;;;1.80;99.90;;;;;;5056367;28;20495;-47
2022/01/07 03:06:41;;;;;;;27.07;12.57;;;1.80;99.70;;;;;;5061157;28;20490;-47
2022/01/07 03:09:08;;;;;;;38.53;12.17;;;1.80;99.70;;;;;;5052185;28;20509;-47
2022/01/07 03:11:36;;;;;;;30.43;15.30;;;1.80;99.80;;;;;;5046206;28;21366;-47
2022/01/07 03:14:03;;;;;;;41.53;16.07;;;1.80;99.70;;;;;;5060272;28;20539;-54
2022/01/07 03:16:30;;;;;;;23.40;12.37;;;1.90;99.80;;;;;;5052437;28;20536;-47
2022/01/07 03:18:57;;;;;;;17.70;10.33;;;1.90;99.80;;;;;;5052643;28;20478;-47
2022/01/07 03:21:23;;;;;;;21.23;11.30;;;1.90;99.90;;;;;;5048438;28;20757;-47
2022/01/07 03:23:50;;;;;;;21.30;11.73;;;2.00;99.80;;;;;;5060116;28;20553;-47
2022/01/07 03:26:17;;;;;;;29.93;11.40;;;2.10;99.80;;;;;;5052745;28;20494;-47
2022/01/07 03:28:47;;;;;;;22.70;12.13;;;2.10;99.60;;;;;;5061885;28;21032;-47
2022/01/07 03:31:14;;;;;;;22.83;11.00;;;2.10;99.50;;;;;;5051187;28;20483;-47
2022/01/07 03:33:40;;;;;;;11.70;5.57;;;2.00;99.50;;;;;;5060214;28;20976;-48
2022/01/07 03:36:07;;;;;;;18.10;8.27;;;2.10;99.80;;;;;;5057917;28;20882;-49
2022/01/07 03:38:34;;;;;;;17.90;9.77;;;2.10;99.90;;;;;;5061981;28;20543;-47
2022/01/07 03:41:02;;;;;;;18.80;10.63;;;2.00;99.90;;;;;;5061507;28;21222;-47
2022/01/07 03:43:29;;;;;;;28.07;15.10;;;2.00;99.90;;;;;;5059204;28;20483;-47
2022/01/07 03:45:57;;;;;;;27.50;12.00;;;1.90;99.80;;;;;;5057616;28;20528;-47
2022/01/07 03:48:24;;;;;;;23.37;10.90;;;1.80;99.90;;;;;;5048512;28;21053;-47
2022/01/07 03:50:51;;;;;;;14.47;7.70;;;1.90;99.90;;;;;;5066231;28;20535;-47
2022/01/07 03:53:17;;;;;;;22.47;11.17;;;1.90;99.90;;;;;;5049763;28;20484;-47
2022/01/07 03:55:44;;;;;;;14.97;8.97;;;1.90;99.90;;;;;;5058917;28;20523;-48
2022/01/07 03:58:11;;;;;;;19.03;10.10;;;2.00;99.90;;;;;;5057138;28;20489;-47
2022/01/07 04:00:41;;;;;;;23.30;9.90;;;1.90;99.90;;;;;;5061923;28;20478;-47
2022/01/07 04:03:11;;;;;;;13.60;7.70;;;2.00;99.90;;;;;;5061087;28;20470;-47
2022/01/07 04:05:38;;;;;;;20.50;9.77;;;2.00;99.90;;;;;;5058215;28;20619;-47
2022/01/07 04:08:05;;;;;;;16.40;8.00;;;2.00;99.90;;;;;;5056418;28;20490;-48
2022/01/07 04:10:32;;;;;;;8.07;4.70;;;2.10;99.90;;;;;;5061175;28;20537;-47
2022/01/07 04:12:59;;;;;;;19.77;9.17;;;2.10;99.90;;;;;;5063193;28;20534;-47
2022/01/07 04:15:28;;;;;;;15.57;7.70;;;2.10;99.80;;;;;;5061157;28;20491;-47
2022/01/07 04:17:55;;;;;;;9.23;6.27;;;2.20;99.90;;;;;;5058773;28;20493;-47
2022/01/07 04:20:25;;;;;;;20.93;8.17;;;2.30;99.70;;;;;;5054796;28;20483;-47
2022/01/07 04:22:52;;;;;;;10.30;5.37;;;2.30;99.80;;;;;;5049634;28;21033;-47
2022/01/07 04:25:21;;;;;;;10.93;6.83;;;2.30;99.80;;;;;;5051025;28;20958;-47
2022/01/07 04:27:50;;;;;;;7.90;5.23;;;2.30;99.90;;;;;;5047461;28;20534;-47
2022/01/07 04:30:17;;;;;;;10.60;8.00;;;2.30;99.60;;;;;;5061147;28;20479;-47
2022/01/07 04:32:45;;;;;;;15.40;9.87;;;2.30;99.60;;;;;;5047935;28;20968;-47
2022/01/07 04:35:13;;;;;;;12.13;6.83;;;2.20;99.50;;;;;;5056123;28;20483;-47
2022/01/07 04:37:42;;;;;;;11.77;6.83;;;2.20;99.60;;;;;;5055245;28;20563;-47
2022/01/07 04:40:11;;;;;;;14.30;6.37;;;2.30;99.60;;;;;;5057358;28;20528;-47
2022/01/07 04:42:38;;;;;;;13.67;6.77;;;2.30;99.60;;;;;;5061810;28;20593;-47
2022/01/07 04:45:06;;;;;;;16.37;8.73;;;2.40;99.40;;;;;;5059536;28;20490;-48
2022/01/07 04:47:35;;;;;;;12.83;7.10;;;2.30;99.50;;;;;;5047593;28;20475;-48
2022/01/07 04:50:02;;;;;;;18.53;6.57;;;2.30;99.40;;;;;;5049483;28;20567;-47
2022/01/07 04:52:28;;;;;;;29.47;9.97;;;2.20;99.50;;;;;;5057985;28;21236;-47
2022/01/07 04:54:56;;;;;;;7.20;3.83;;;2.20;99.60;;;;;;5053179;28;20939;-48
2022/01/07 04:57:23;;;;;;;20.13;7.33;;;2.20;99.60;;;;;;5046429;28;22390;-47
2022/01/07 04:59:50;;;;;;;21.70;11.00;;;2.20;99.60;;;;;;5059175;28;20537;-47
2022/01/07 05:02:19;;;;;;;9.50;4.73;;;2.10;99.50;;;;;;5066365;28;20509;-47
2022/01/07 05:04:45;;;;;;;19.43;10.70;;;2.20;99.70;;;;;;5081142;28;21085;-48
2022/01/07 05:07:12;;;;;;;10.00;6.00;;;2.20;99.90;;;;;;5080342;28;20530;-48
2022/01/07 05:09:39;;;;;;;12.73;8.30;;;2.20;99.80;;;;;;5079083;28;20875;-47
2022/01/07 05:12:08;;;;;;;8.77;5.07;;;2.10;99.60;;;;;;5078175;28;21047;-48
2022/01/07 05:14:34;;;;;;;15.30;9.40;;;2.20;99.80;;;;;;5079937;28;20538;-47
2022/01/07 05:17:01;;;;;;;10.37;6.07;;;2.10;99.80;;;;;;5072316;28;20489;-47
2022/01/07 05:19:28;;;;;;;14.73;8.03;;;2.20;99.90;;;;;;5079424;28;20485;-47
2022/01/07 05:21:55;;;;;;;5.10;3.50;;;2.30;99.80;;;;;;5074908;28;21068;-47
2022/01/07 05:24:21;;;;;;;9.47;4.40;;;2.30;99.80;;;;;;5079981;27;20485;-47
2022/01/07 05:26:48;;;;;;;8.40;3.70;;;2.30;99.80;;;;;;5084073;28;20546;-48
2022/01/07 05:29:16;;;;;;;13.97;7.40;;;2.40;99.80;;;;;;5078636;28;20483;-48
2022/01/07 05:31:43;;;;;;;4.60;3.00;;;2.40;99.80;;;;;;5115692;27;20993;-47
2022/01/07 05:34:10;;;;;;;12.47;5.40;;;2.40;99.80;;;;;;5078978;27;20834;-48
2022/01/07 05:36:37;;;;;;;5.80;4.90;;;2.40;99.80;;;;;;5079612;28;21121;-47
2022/01/07 05:39:05;;;;;;;10.00;3.33;;;2.40;99.60;;;;;;5076441;28;20493;-47
2022/01/07 05:41:33;;;;;;;16.37;8.17;;;2.40;99.70;;;;;;5084363;27;20498;-47
2022/01/07 05:43:59;;;;;;;9.93;5.17;;;2.40;99.60;;;;;;5082864;27;20528;-47
2022/01/07 05:46:27;;;;;;;16.20;9.60;;;2.50;99.60;;;;;;5053076;28;20542;-48
2022/01/07 05:48:54;;;;;;;5.43;4.20;;;2.40;99.60;;;;;;5056938;28;20478;-48
2022/01/07 05:51:21;;;;;;;8.77;5.47;;;2.40;99.70;;;;;;5063834;28;20489;-47
2022/01/07 05:53:48;;;;;;;4.90;3.00;;;2.50;99.70;;;;;;5059566;28;20472;-47
2022/01/07 05:56:14;;;;;;;17.27;5.97;;;2.50;99.60;;;;;;5047031;28;20786;-47
2022/01/07 05:58:41;;;;;;;15.60;6.00;;;2.60;99.60;;;;;;5055698;28;20485;-47
2022/01/07 06:01:10;;;;;;;17.63;7.97;;;2.50;99.50;;;;;;5057500;28;20904;-48
2022/01/07 06:03:38;;;;;;;10.50;6.00;;;2.50;99.40;;;;;;5049364;28;20536;-47
2022/01/07 06:06:05;;;;;;;7.47;3.50;;;2.60;99.60;;;;;;5080768;27;21383;-47
2022/01/07 06:08:32;;;;;;;23.37;8.17;;;2.60;99.50;;;;;;5070022;27;20490;-48
2022/01/07 06:10:58;;;;;;;11.20;6.30;;;2.60;99.30;;;;;;5069276;28;20540;-47
2022/01/07 06:13:25;;;;;;;10.40;6.40;;;2.60;99.30;;;;;;5047005;28;20552;-47
2022/01/07 06:15:52;;;;;;;16.17;7.20;;;2.70;99.40;;;;;;5078787;27;20898;-47
2022/01/07 06:18:18;;;;;;;10.03;5.53;;;2.70;99.30;;;;;;5052953;28;21214;-48
2022/01/07 06:20:46;;;;;;;8.80;5.07;;;2.70;99.30;;;;;;5061424;28;20969;-47
2022/01/07 06:23:13;;;;;;;9.53;6.73;;;2.70;99.30;;;;;;5057182;28;20541;-47
2022/01/07 06:25:42;;;;;;;9.93;4.77;;;2.70;99.30;;;;;;5052259;28;20479;-47
2022/01/07 06:28:09;;;;;;;10.53;5.67;;;2.80;99.10;;;;;;5054551;28;20480;-50
2022/01/07 06:30:35;;;;;;;15.80;8.17;;;2.70;99.00;;;;;;5045970;28;20534;-47
2022/01/07 06:33:02;;;;;;;14.13;9.20;;;2.60;98.90;;;;;;5042570;28;21090;-47
2022/01/07 06:35:29;;;;;;;11.80;7.90;;;2.60;99.20;;;;;;5055393;28;21068;-47
2022/01/07 06:37:58;;;;;;;6.70;3.60;;;2.60;99.50;;;;;;5056161;28;20492;-47
2022/01/07 06:40:24;;;;;;;19.80;8.27;;;2.60;99.40;;;;;;5066548;28;20638;-47
2022/01/07 06:42:51;;;;;;;14.30;8.80;;;2.60;99.40;;;;;;5075200;28;20486;-47
2022/01/07 06:45:18;;;;;;;12.90;7.37;;;2.60;99.40;;;;;;5075478;28;20495;-47
2022/01/07 06:47:45;;;;;;;18.17;8.90;;;2.60;99.30;;;;;;5079692;28;20481;-47
2022/01/07 06:50:12;;;;;;;19.40;8.70;;;2.50;99.30;;;;;;5076288;28;20483;-48
2022/01/07 06:52:39;;;;;;;11.83;8.20;;;2.50;99.40;;;;;;5075365;28;20679;-47
2022/01/07 06:55:08;;;;;;;13.70;8.37;;;2.40;99.30;;;;;;5087423;27;20492;-47
2022/01/07 06:57:35;;;;;;;12.03;6.60;;;2.50;99.50;;;;;;5079317;27;20498;-47
2022/01/07 07:00:02;;;;;;;20.03;9.43;;;2.50;99.50;;;;;;5091662;27;20576;-48
2022/01/07 07:02:29;;;;;;;22.43;9.50;;;2.50;99.20;;;;;;5070912;27;20532;-48
2022/01/07 07:04:55;;;;;;;14.40;9.03;;;2.50;99.20;;;;;;5077436;28;20942;-47
2022/01/07 07:07:22;;;;;;;20.73;8.07;;;2.40;99.10;;;;;;5066097;28;20483;-47
2022/01/07 07:09:49;;;;;;;16.27;8.90;;;2.50;99.40;;;;;;5071810;28;20477;-47
2022/01/07 07:12:17;;;;;;;13.00;6.93;;;2.50;99.40;;;;;;5074408;28;20979;-48
2022/01/07 07:14:43;;;;;;;16.27;7.90;;;2.60;99.20;;;;;;5071115;28;20478;-47
2022/01/07 07:17:12;;;;;;;12.40;7.13;;;2.60;99.20;;;;;;5074307;28;20492;-48
2022/01/07 07:19:39;;;;;;;14.93;8.60;;;2.50;99.20;;;;;;5090370;27;20559;-48
2022/01/07 07:22:06;;;;;;;15.60;8.60;;;2.50;99.40;;;;;;5092134;27;20490;-47
2022/01/07 07:24:32;;;;;;;11.53;6.13;;;2.50;99.50;;;;;;5070795;27;20475;-47
2022/01/07 07:26:59;;;;;;;9.23;5.37;;;2.50;99.60;;;;;;5090130;27;20485;-47
2022/01/07 07:29:27;;;;;;;14.77;10.83;;;2.60;99.70;;;;;;5080897;27;20860;-47
2022/01/07 07:31:56;;;;;;;18.40;7.77;;;2.40;99.30;;;;;;5082616;27;20552;-47
2022/01/07 07:37:13;;;;;;;17.07;8.80;;;2.60;99.60;;;;;;5036655;28;20537;-48
2022/01/07 07:39:40;;;;;;;14.07;9.13;;;2.60;99.60;;;;;;5062021;28;20545;-47
2022/01/07 07:42:08;;;;;;;19.53;8.63;;;2.60;99.60;;;;;;5049612;28;20476;-47
2022/01/07 07:44:36;;;;;;;14.53;8.00;;;2.60;99.80;;;;;;5053986;28;20475;-47
2022/01/07 07:47:04;;;;;;;11.97;4.20;;;2.60;99.90;;;;;;5047992;28;21287;-47
2022/01/07 07:49:30;;;;;;;11.57;7.60;;;2.60;99.90;;;;;;5052206;28;20563;-47
2022/01/07 07:51:57;;;;;;;10.27;5.40;;;2.60;99.90;;;;;;5055844;28;20598;-47
2022/01/07 07:54:25;;;;;;;11.03;6.37;;;2.50;99.90;;;;;;5054005;28;20498;-48
2022/01/07 07:56:52;;;;;;;16.93;8.70;;;2.60;99.90;;;;;;5047821;28;20549;-48
2022/01/07 07:59:19;;;;;;;15.17;10.13;;;2.60;99.90;;;;;;5044305;28;20552;-48
2022/01/07 08:01:47;;;;;;;8.20;5.17;;;2.60;99.90;;;;;;5061321;28;20503;-47
2022/01/07 08:04:15;;;;;;;9.63;3.50;;;2.50;99.90;;;;;;5074803;28;20489;-48
2022/01/07 08:06:42;;;;;;;15.30;8.60;;;2.60;99.90;;;;;;5074592;27;21204;-47
2022/01/07 08:09:09;;;;;;;13.03;10.37;;;2.60;99.90;;;;;;5084021;27;20548;-47
2022/01/07 08:11:48;;;;;;;3.93;3.17;;;2.60;99.90;;;;;;5059995;28;20486;-47
2022/01/07 08:17:01;;;;;;;11.13;5.90;;;2.60;99.90;;;;;;5062813;28;21076;-47
2022/01/07 08:19:27;;;;;;;15.33;8.20;;;2.60;99.90;;;;;;5074855;27;20495;-48
2022/01/07 08:21:54;;;;;;;7.43;4.83;;;2.60;99.90;;;;;;5060304;28;20474;-47
2022/01/07 08:24:21;;;;;;;18.43;8.00;;;2.60;99.90;;;;;;5063255;28;20482;-47
2022/01/07 08:26:48;;;;;;;15.67;8.87;;;2.60;99.90;;;;;;5061442;28;20503;-47
2022/01/07 08:29:15;;;;;;;10.73;6.60;;;2.50;99.90;;;;;;5052843;28;20485;-47
2022/01/07 08:37:12;;;;;;;4.57;1.90;;;2.50;99.90;;;;;;5065765;28;20601;-47
2022/01/07 08:39:39;;;;;;;10.47;5.37;;;2.50;99.90;;;;;;5066907;28;20476;-47
2022/01/07 08:42:06;;;;;;;14.50;5.87;;;2.40;99.90;;;;;;5060963;28;20491;-47
2022/01/07 08:44:33;;;;;;;8.30;4.80;;;2.40;99.90;;;;;;5038358;28;20564;-47
2022/01/07 08:46:59;;;;;;;9.10;5.80;;;2.40;99.90;;;;;;5035373;28;20549;-48
2022/01/07 08:49:27;;;;;;;7.47;5.20;;;2.50;99.90;;;;;;5041118;28;20924;-46
2022/01/07 08:51:54;;;;;;;12.50;5.60;;;2.50;99.90;;;;;;5039316;28;21511;-47
2022/01/07 08:54:21;;;;;;;10.63;4.53;;;2.40;99.90;;;;;;5049133;28;20495;-49
2022/01/07 08:56:47;;;;;;;6.27;4.17;;;2.40;99.90;;;;;;5060533;27;20484;-48
2022/01/07 08:59:14;;;;;;;13.57;6.10;;;2.40;99.90;;;;;;5051590;28;20740;-48
2022/01/07 09:01:42;;;;;;;7.90;4.40;;;2.50;99.90;;;;;;5044326;28;20479;-47
2022/01/07 09:04:09;;;;;;;15.83;3.40;;;2.50;99.90;;;;;;5049569;28;20878;-47
2022/01/07 09:06:37;;;;;;;4.23;3.83;;;2.40;99.90;;;;;;5058060;28;20840;-46
2022/01/07 09:09:03;;;;;;;11.23;5.50;;;2.40;99.90;;;;;;5056587;28;20563;-47
2022/01/07 09:11:30;;;;;;;9.60;5.80;;;2.50;99.90;;;;;;5055764;28;20488;-47
2022/01/07 09:13:58;;;;;;;4.07;3.40;;;2.50;99.90;;;;;;5061753;28;20490;-48
2022/01/07 09:16:26;;;;;;;11.50;7.07;;;2.50;99.90;;;;;;5061988;28;20672;-47
2022/01/07 09:18:52;;;;;;;8.53;2.87;;;2.50;99.90;;;;;;5059606;28;20478;-49
2022/01/07 09:21:19;;;;;;;8.73;4.27;;;2.60;99.90;;;;;;5074859;28;20490;-47
2022/01/07 09:23:48;;;;;;;12.33;5.10;;;2.70;99.90;;;;;;5062675;28;20484;-47
2022/01/07 09:26:14;;;;;;;5.80;3.80;;;2.70;99.90;;;;;;5062709;28;20503;-47
2022/01/07 09:28:41;;;;;;;7.20;4.00;;;2.70;99.90;;;;;;5063802;28;20538;-47
2022/01/07 09:31:08;;;;;;;7.47;5.07;;;2.70;99.90;;;;;;5061702;28;20481;-47
2022/01/07 09:33:35;;;;;;;9.20;6.60;;;2.70;99.90;;;;;;5060840;28;20487;-47
2022/01/07 09:36:02;;;;;;;7.03;4.67;;;2.70;99.90;;;;;;5053783;28;20979;-46
2022/01/07 09:38:28;;;;;;;11.63;6.70;;;2.70;99.90;;;;;;5073955;28;20504;-47
2022/01/07 09:40:56;;;;;;;6.63;5.97;;;2.80;99.90;;;;;;5050823;28;20499;-47
2022/01/07 09:43:23;;;;;;;4.70;3.90;;;2.80;99.90;;;;;;5073595;28;20498;-47
2022/01/07 09:45:51;;;;;;;9.27;4.50;;;2.80;99.90;;;;;;5064094;28;20478;-46
2022/01/07 09:48:18;;;;;;;9.93;6.80;;;2.80;99.90;;;;;;5063444;28;20522;-46
2022/01/07 09:50:46;;;;;;;5.73;5.13;;;2.70;99.90;;;;;;5060106;28;20636;-46
2022/01/07 09:53:15;;;;;;;8.47;4.87;;;2.70;99.90;;;;;;5063258;28;20557;-46
2022/01/07 09:55:43;;;;;;;9.97;5.50;;;2.70;99.90;;;;;;5068385;27;20477;-47
2022/01/07 09:58:13;;;;;;;11.23;5.57;;;2.70;99.90;;;;;;5053349;27;20826;-47
2022/01/07 10:00:42;;;;;;;6.33;3.40;;;2.70;99.90;;;;;;5059311;28;20482;-48
2022/01/07 10:03:11;;;;;;;5.83;3.87;;;2.70;99.90;;;;;;5068745;28;20565;-47
2022/01/07 10:05:42;;;;;;;11.53;6.20;;;2.80;99.90;;;;;;5057593;28;20493;-47
2022/01/07 10:08:23;;;;;;;3.67;2.77;;;2.70;99.90;;;;;;5052898;28;20505;-46
2022/01/07 10:11:16;;;;;;;6.00;4.73;;;2.80;99.90;;;;;;5046102;28;20468;-47
2022/01/07 10:13:46;;;;;;;6.43;2.77;;;2.80;99.90;;;;;;5034854;28;20898;-47
2022/01/07 10:16:16;;;;;;;3.97;3.53;;;2.80;99.90;;;;;;5065700;28;20537;-50
2022/01/07 10:18:43;;;;;;;13.67;7.80;;;2.80;99.90;;;;;;5054642;28;20478;-47
2022/01/07 10:21:11;;;;;;;10.27;6.53;;;2.80;99.90;;;;;;5077193;27;20481;-47
2022/01/07 10:23:39;;;;;;;8.57;4.50;;;2.90;99.90;;;;;;5062825;28;20975;-46
2022/01/07 10:26:14;;;;;;;7.13;4.57;;;2.90;99.90;;;;;;5072406;28;20896;-47
2022/01/07 10:28:41;;;;;;;10.60;7.60;;;3.00;99.90;;;;;;5056917;28;20479;-47
2022/01/07 10:31:10;;;;;;;4.20;3.80;;;2.90;99.90;;;;;;5046018;28;20486;-47
2022/01/07 10:33:38;;;;;;;9.10;4.43;;;2.90;99.90;;;;;;5042144;28;20489;-46
2022/01/07 10:36:16;;;;;;;12.90;7.20;;;2.90;99.90;;;;;;5039732;28;20541;-47
2022/01/07 10:38:48;;;;;;;10.90;3.77;;;3.00;99.90;;;;;;5041391;28;20546;-47
2022/01/07 10:41:15;;;;;;;8.50;4.47;;;3.00;99.90;;;;;;5042278;28;20514;-48
2022/01/07 10:43:42;;;;;;;7.37;4.23;;;2.90;99.90;;;;;;5048134;28;21043;-47
2022/01/07 10:46:19;;;;;;;7.70;3.40;;;2.80;99.90;;;;;;5041993;28;20557;-47
2022/01/07 10:48:50;;;;;;;8.13;6.10;;;2.80;99.90;;;;;;5043604;28;21139;-47
2022/01/07 10:51:19;;;;;;;8.30;4.43;;;2.80;99.90;;;;;;5042992;28;21064;-47
2022/01/07 10:53:49;;;;;;;11.87;5.70;;;2.80;99.90;;;;;;5040720;28;20476;-47
2022/01/07 10:56:19;;;;;;;11.83;3.93;;;2.80;99.90;;;;;;5044522;28;20511;-47
2022/01/07 10:59:07;;;;;;;5.53;4.00;;;2.80;99.90;;;;;;5057818;28;20473;-47
2022/01/07 11:01:45;;;;;;;10.27;6.80;;;2.80;99.90;;;;;;5038739;28;20996;-47
2022/01/07 11:04:15;;;;;;;4.60;2.90;;;2.70;99.90;;;;;;5038252;28;20479;-47
2022/01/07 11:06:43;;;;;;;5.50;4.37;;;2.70;99.90;;;;;;5053889;28;20486;-48
2022/01/07 11:09:11;;;;;;;11.17;7.40;;;2.80;99.90;;;;;;5047315;28;20857;-48
2022/01/07 11:11:46;;;;;;;13.90;5.50;;;2.80;99.90;;;;;;5070850;28;20479;-47
2022/01/07 11:14:16;;;;;;;7.57;5.53;;;2.80;99.90;;;;;;5052356;27;20639;-48
2022/01/07 11:16:44;;;;;;;5.33;4.20;;;2.90;99.90;;;;;;5075703;27;21351;-47
2022/01/07 11:19:12;;;;;;;11.73;6.73;;;2.90;99.90;;;;;;5070969;28;20478;-49
2022/01/07 11:21:41;;;;;;;9.50;5.97;;;2.90;99.90;;;;;;5059732;28;20536;-47
2022/01/07 11:24:33;;;;;;;7.17;4.30;;;3.00;99.90;;;;;;5042129;28;20483;-47
2022/01/07 11:27:01;;;;;;;4.90;3.17;;;3.00;99.90;;;;;;5046159;28;20853;-47
2022/01/07 11:29:29;;;;;;;5.70;3.57;;;3.00;99.90;;;;;;5059625;28;20880;-47
2022/01/07 11:32:28;;;;;;;7.10;5.80;;;3.00;99.90;;;;;;5039500;28;20474;-47
2022/01/07 11:34:55;;;;;;;5.70;4.40;;;3.00;99.90;;;;;;5049082;28;20881;-47
2022/01/07 11:37:35;;;;;;;6.83;4.03;;;3.00;99.90;;;;;;5038689;28;20982;-49
2022/01/07 11:40:01;;;;;;;7.93;3.23;;;3.00;99.90;;;;;;5043962;28;20997;-47
2022/01/07 11:42:43;;;;;;;4.63;4.23;;;3.00;99.90;;;;;;5037825;28;20490;-48
2022/01/07 11:45:29;;;;;;;8.57;4.27;;;3.10;99.90;;;;;;5045448;28;20923;-47
2022/01/07 11:47:59;;;;;;;5.23;4.43;;;3.00;99.90;;;;;;5039886;28;20604;-48
2022/01/07 11:50:26;;;;;;;4.60;3.80;;;3.00;99.90;;;;;;5036016;28;20552;-48
2022/01/07 11:52:58;;;;;;;6.37;4.53;;;3.10;99.90;;;;;;5042832;28;20560;-47
2022/01/07 11:55:32;;;;;;;5.53;4.93;;;3.10;99.90;;;;;;5004271;28;20482;-47
2022/01/07 11:58:03;;;;;;;6.27;4.70;;;3.10;99.90;;;;;;5058789;28;21371;-47
2022/01/07 12:00:56;;;;;;;4.53;3.73;;;3.00;99.90;;;;;;5069799;28;20478;-48
2022/01/07 12:03:36;;;;;;;4.30;3.80;;;3.00;99.90;;;;;;5072300;28;20489;-48
2022/01/07 12:06:43;;;;;;;6.00;5.20;;;3.00;99.90;;;;;;5054592;28;20515;-48
2022/01/07 12:09:16;;;;;;;3.70;3.07;;;3.00;99.90;;;;;;5070297;28;21266;-47
2022/01/07 12:11:45;;;;;;;4.67;3.47;;;3.10;99.90;;;;;;5062370;28;20483;-47
2022/01/07 12:14:14;;;;;;;4.80;3.77;;;3.10;99.90;;;;;;5071184;28;20485;-48
2022/01/07 12:16:43;;;;;;;3.80;2.93;;;3.20;99.90;;;;;;5070907;28;21095;-48
2022/01/07 12:19:40;;;;;;;8.10;5.87;;;3.30;99.90;;;;;;5067566;28;20479;-48
2022/01/07 12:22:11;;;;;;;4.50;3.57;;;3.30;99.90;;;;;;5062168;28;20505;-47
2022/01/07 12:24:38;;;;;;;5.70;4.63;;;3.40;99.90;;;;;;5063361;28;20880;-47
2022/01/07 12:27:07;;;;;;;7.57;5.17;;;3.40;99.90;;;;;;5077225;27;20850;-47
2022/01/07 12:29:38;;;;;;;8.33;4.60;;;3.40;99.90;;;;;;5069629;28;20583;-48
2022/01/07 12:32:07;;;;;;;6.23;3.93;;;3.30;99.90;;;;;;5059142;28;20561;-47
2022/01/07 12:34:40;;;;;;;8.30;7.10;;;3.30;99.90;;;;;;5067406;28;21066;-47
2022/01/07 12:37:09;;;;;;;4.50;4.10;;;3.20;99.90;;;;;;5059851;28;20479;-47
2022/01/07 12:39:38;;;;;;;3.97;3.40;;;3.20;99.90;;;;;;5062888;28;20477;-47
2022/01/07 12:42:06;;;;;;;9.80;3.77;;;3.20;99.90;;;;;;5062699;28;20485;-48
2022/01/07 12:44:35;;;;;;;9.80;5.30;;;3.20;99.90;;;;;;5071637;27;20485;-47
2022/01/07 12:47:02;;;;;;;12.27;3.77;;;3.20;99.90;;;;;;5087872;27;20893;-47
2022/01/07 12:49:34;;;;;;;11.67;6.83;;;3.20;99.90;;;;;;5068471;28;20480;-47
2022/01/07 12:52:02;;;;;;;5.80;3.63;;;3.20;99.90;;;;;;5077577;27;20471;-48
2022/01/07 12:54:30;;;;;;;6.90;5.17;;;3.20;99.90;;;;;;5078589;27;20894;-48
2022/01/07 12:56:57;;;;;;;11.47;7.80;;;3.20;99.90;;;;;;5080295;27;20489;-49
2022/01/07 12:59:26;;;;;;;7.90;4.50;;;3.20;99.90;;;;;;5082967;27;20481;-47
2022/01/07 13:01:54;;;;;;;7.30;5.33;;;3.20;99.90;;;;;;5075495;27;20477;-47
2022/01/07 13:04:23;;;;;;;7.87;3.90;;;3.20;99.90;;;;;;5087554;27;20487;-47